sensor_id;sensor_type;location;lat;lon;timestamp;temperature;humidity
11532;DHT22;5822;51.000;5.874;2022-08-02T00:02:10;19.30;99.90
11532;DHT22;5822;51.000;5.874;2022-08-02T00:04:36;19.30;99.90
11532;DHT22;5822;51.000;5.874;2022-08-02T00:07:01;19.30;99.90
11532;DHT22;5822;51.000;5.874;2022-08-02T00:09:27;19.30;99.90
11532;DHT22;5822;51.000;5.874;2022-08-02T00:11:53;19.30;99.90
11532;DHT22;5822;51.000;5.874;2022-08-02T00:14:19;19.40;99.90
11532;DHT22;5822;51.000;5.874;2022-08-02T00:16:44;19.50;99.90
11532;DHT22;5822;51.000;5.874;2022-08-02T00:19:10;19.50;99.90
11532;DHT22;5822;51.000;5.874;2022-08-02T00:21:36;19.50;99.90
11532;DHT22;5822;51.000;5.874;2022-08-02T00:24:02;19.40;99.90
11532;DHT22;5822;51.000;5.874;2022-08-02T00:26:27;19.40;99.90
11532;DHT22;5822;51.000;5.874;2022-08-02T00:28:53;19.30;99.90
11532;DHT22;5822;51.000;5.874;2022-08-02T00:31:19;19.30;99.90
11532;DHT22;5822;51.000;5.874;2022-08-02T00:33:44;19.30;99.90
11532;DHT22;5822;51.000;5.874;2022-08-02T00:36:10;19.30;99.90
11532;DHT22;5822;51.000;5.874;2022-08-02T00:38:36;19.20;99.90
11532;DHT22;5822;51.000;5.874;2022-08-02T00:41:01;19.30;99.90
11532;DHT22;5822;51.000;5.874;2022-08-02T00:43:27;19.30;99.90
11532;DHT22;5822;51.000;5.874;2022-08-02T00:45:52;19.40;99.90
11532;DHT22;5822;51.000;5.874;2022-08-02T00:48:18;19.40;99.90
11532;DHT22;5822;51.000;5.874;2022-08-02T00:50:44;19.30;99.90
11532;DHT22;5822;51.000;5.874;2022-08-02T00:53:09;19.30;99.90
11532;DHT22;5822;51.000;5.874;2022-08-02T00:55:36;19.20;99.90
11532;DHT22;5822;51.000;5.874;2022-08-02T00:58:02;19.10;99.90
11532;DHT22;5822;51.000;5.874;2022-08-02T01:00:28;19.00;99.90
11532;DHT22;5822;51.000;5.874;2022-08-02T01:02:54;19.10;99.90
11532;DHT22;5822;51.000;5.874;2022-08-02T01:05:19;19.20;99.90
11532;DHT22;5822;51.000;5.874;2022-08-02T01:07:45;19.20;99.90
11532;DHT22;5822;51.000;5.874;2022-08-02T01:10:11;19.20;99.90
11532;DHT22;5822;51.000;5.874;2022-08-02T01:12:36;19.20;99.90
11532;DHT22;5822;51.000;5.874;2022-08-02T01:15:08;19.20;99.90
11532;DHT22;5822;51.000;5.874;2022-08-02T01:23:31;19.00;99.90
11532;DHT22;5822;51.000;5.874;2022-08-02T01:28:39;19.00;99.90
11532;DHT22;5822;51.000;5.874;2022-08-02T01:37:15;18.90;99.90
11532;DHT22;5822;51.000;5.874;2022-08-02T01:39:43;18.90;99.90
11532;DHT22;5822;51.000;5.874;2022-08-02T01:42:11;19.00;99.90
11532;DHT22;5822;51.000;5.874;2022-08-02T01:44:40;19.00;99.90
11532;DHT22;5822;51.000;5.874;2022-08-02T01:47:14;19.10;99.90
11532;DHT22;5822;51.000;5.874;2022-08-02T01:49:44;19.10;99.90
11532;DHT22;5822;51.000;5.874;2022-08-02T01:52:11;19.00;99.90
11532;DHT22;5822;51.000;5.874;2022-08-02T01:55:04;19.00;99.90
11532;DHT22;5822;51.000;5.874;2022-08-02T01:57:57;19.00;99.90
11532;DHT22;5822;51.000;5.874;2022-08-02T02:00:22;19.00;99.90
11532;DHT22;5822;51.000;5.874;2022-08-02T02:02:49;19.00;99.90
11532;DHT22;5822;51.000;5.874;2022-08-02T02:05:19;19.00;99.90
11532;DHT22;5822;51.000;5.874;2022-08-02T02:07:47;19.00;99.90
11532;DHT22;5822;51.000;5.874;2022-08-02T02:10:15;19.00;99.90
11532;DHT22;5822;51.000;5.874;2022-08-02T02:12:46;19.00;99.90
11532;DHT22;5822;51.000;5.874;2022-08-02T02:15:14;19.20;99.90
11532;DHT22;5822;51.000;5.874;2022-08-02T02:17:43;19.20;99.90
11532;DHT22;5822;51.000;5.874;2022-08-02T02:20:13;19.00;99.90
11532;DHT22;5822;51.000;5.874;2022-08-02T02:22:39;18.90;99.90
11532;DHT22;5822;51.000;5.874;2022-08-02T02:25:06;18.90;99.90
11532;DHT22;5822;51.000;5.874;2022-08-02T02:27:33;18.70;99.90
11532;DHT22;5822;51.000;5.874;2022-08-02T02:30:01;18.60;99.90
11532;DHT22;5822;51.000;5.874;2022-08-02T02:32:27;18.60;99.90
11532;DHT22;5822;51.000;5.874;2022-08-02T02:34:55;18.60;99.90
11532;DHT22;5822;51.000;5.874;2022-08-02T02:37:21;18.70;99.90
11532;DHT22;5822;51.000;5.874;2022-08-02T02:39:50;18.80;99.90
11532;DHT22;5822;51.000;5.874;2022-08-02T02:42:18;18.80;99.90
11532;DHT22;5822;51.000;5.874;2022-08-02T02:44:45;18.70;99.90
11532;DHT22;5822;51.000;5.874;2022-08-02T02:47:14;18.60;99.90
11532;DHT22;5822;51.000;5.874;2022-08-02T02:49:42;18.50;99.90
11532;DHT22;5822;51.000;5.874;2022-08-02T02:52:09;18.50;99.90
11532;DHT22;5822;51.000;5.874;2022-08-02T02:54:35;18.50;99.90
11532;DHT22;5822;51.000;5.874;2022-08-02T02:57:04;18.50;99.90
11532;DHT22;5822;51.000;5.874;2022-08-02T02:59:32;18.60;99.90
11532;DHT22;5822;51.000;5.874;2022-08-02T03:01:59;18.60;99.90
11532;DHT22;5822;51.000;5.874;2022-08-02T03:04:27;18.40;99.90
11532;DHT22;5822;51.000;5.874;2022-08-02T03:06:53;18.50;99.90
11532;DHT22;5822;51.000;5.874;2022-08-02T03:09:19;18.60;99.90
11532;DHT22;5822;51.000;5.874;2022-08-02T03:11:45;18.50;99.90
11532;DHT22;5822;51.000;5.874;2022-08-02T03:14:11;18.70;99.90
11532;DHT22;5822;51.000;5.874;2022-08-02T03:16:48;18.90;99.90
11532;DHT22;5822;51.000;5.874;2022-08-02T03:19:15;18.70;99.90
11532;DHT22;5822;51.000;5.874;2022-08-02T03:21:42;18.60;99.90
11532;DHT22;5822;51.000;5.874;2022-08-02T03:24:08;18.40;99.90
11532;DHT22;5822;51.000;5.874;2022-08-02T03:26:34;18.40;99.90
11532;DHT22;5822;51.000;5.874;2022-08-02T03:29:03;18.40;99.90
11532;DHT22;5822;51.000;5.874;2022-08-02T03:31:28;18.40;99.90
11532;DHT22;5822;51.000;5.874;2022-08-02T03:33:55;18.40;99.90
11532;DHT22;5822;51.000;5.874;2022-08-02T03:36:23;18.40;99.90
11532;DHT22;5822;51.000;5.874;2022-08-02T03:38:50;18.40;99.90
11532;DHT22;5822;51.000;5.874;2022-08-02T03:41:18;18.30;99.90
11532;DHT22;5822;51.000;5.874;2022-08-02T03:43:46;18.30;99.90
11532;DHT22;5822;51.000;5.874;2022-08-02T03:46:14;18.30;99.90
11532;DHT22;5822;51.000;5.874;2022-08-02T03:48:40;18.30;99.90
11532;DHT22;5822;51.000;5.874;2022-08-02T03:51:06;18.30;99.90
11532;DHT22;5822;51.000;5.874;2022-08-02T03:53:33;18.30;99.90
11532;DHT22;5822;51.000;5.874;2022-08-02T03:55:59;18.30;99.90
11532;DHT22;5822;51.000;5.874;2022-08-02T03:58:25;18.30;99.90
11532;DHT22;5822;51.000;5.874;2022-08-02T04:00:52;18.20;99.90
11532;DHT22;5822;51.000;5.874;2022-08-02T04:03:19;18.30;99.90
11532;DHT22;5822;51.000;5.874;2022-08-02T04:05:44;18.20;99.90
11532;DHT22;5822;51.000;5.874;2022-08-02T04:08:10;18.30;99.90
11532;DHT22;5822;51.000;5.874;2022-08-02T04:10:35;18.40;99.90
11532;DHT22;5822;51.000;5.874;2022-08-02T04:13:20;18.30;99.90
11532;DHT22;5822;51.000;5.874;2022-08-02T04:15:49;18.30;99.90
11532;DHT22;5822;51.000;5.874;2022-08-02T04:18:16;18.30;99.90
11532;DHT22;5822;51.000;5.874;2022-08-02T04:20:44;18.30;99.90
11532;DHT22;5822;51.000;5.874;2022-08-02T04:23:13;18.20;99.90
11532;DHT22;5822;51.000;5.874;2022-08-02T04:25:40;18.30;99.90
11532;DHT22;5822;51.000;5.874;2022-08-02T04:28:07;18.20;99.90
11532;DHT22;5822;51.000;5.874;2022-08-02T04:30:34;18.20;99.90
11532;DHT22;5822;51.000;5.874;2022-08-02T04:33:00;18.30;99.90
11532;DHT22;5822;51.000;5.874;2022-08-02T04:35:26;18.50;99.90
11532;DHT22;5822;51.000;5.874;2022-08-02T04:37:52;18.50;99.90
11532;DHT22;5822;51.000;5.874;2022-08-02T04:40:18;18.60;99.90
11532;DHT22;5822;51.000;5.874;2022-08-02T04:42:44;18.60;99.90
11532;DHT22;5822;51.000;5.874;2022-08-02T04:45:10;18.70;99.90
11532;DHT22;5822;51.000;5.874;2022-08-02T04:47:36;18.60;99.90
11532;DHT22;5822;51.000;5.874;2022-08-02T04:50:03;18.70;99.90
11532;DHT22;5822;51.000;5.874;2022-08-02T04:52:28;18.70;99.90
11532;DHT22;5822;51.000;5.874;2022-08-02T04:54:54;18.60;99.90
11532;DHT22;5822;51.000;5.874;2022-08-02T04:57:20;18.70;99.90
11532;DHT22;5822;51.000;5.874;2022-08-02T05:00:06;18.90;99.90
11532;DHT22;5822;51.000;5.874;2022-08-02T05:02:33;19.10;99.90
11532;DHT22;5822;51.000;5.874;2022-08-02T05:04:58;19.20;99.90
11532;DHT22;5822;51.000;5.874;2022-08-02T05:07:24;19.30;99.90
11532;DHT22;5822;51.000;5.874;2022-08-02T05:09:49;19.30;99.90
11532;DHT22;5822;51.000;5.874;2022-08-02T05:12:15;19.30;99.90
11532;DHT22;5822;51.000;5.874;2022-08-02T05:14:40;19.30;99.90
11532;DHT22;5822;51.000;5.874;2022-08-02T05:17:06;19.10;99.90
11532;DHT22;5822;51.000;5.874;2022-08-02T05:19:32;19.10;99.90
11532;DHT22;5822;51.000;5.874;2022-08-02T05:21:57;19.20;99.90
11532;DHT22;5822;51.000;5.874;2022-08-02T05:24:23;19.20;99.90
11532;DHT22;5822;51.000;5.874;2022-08-02T05:26:49;19.20;99.90
11532;DHT22;5822;51.000;5.874;2022-08-02T05:29:15;19.30;99.90
11532;DHT22;5822;51.000;5.874;2022-08-02T05:31:41;19.30;99.90
11532;DHT22;5822;51.000;5.874;2022-08-02T05:34:06;19.30;99.90
11532;DHT22;5822;51.000;5.874;2022-08-02T05:36:32;19.40;99.90
11532;DHT22;5822;51.000;5.874;2022-08-02T05:38:58;19.50;99.90
11532;DHT22;5822;51.000;5.874;2022-08-02T05:41:23;19.50;99.90
11532;DHT22;5822;51.000;5.874;2022-08-02T05:43:49;19.50;99.90
11532;DHT22;5822;51.000;5.874;2022-08-02T05:46:15;19.60;99.90
11532;DHT22;5822;51.000;5.874;2022-08-02T05:48:40;19.60;99.90
11532;DHT22;5822;51.000;5.874;2022-08-02T05:51:12;19.70;99.90
11532;DHT22;5822;51.000;5.874;2022-08-02T06:01:39;19.70;99.90
11532;DHT22;5822;51.000;5.874;2022-08-02T06:04:09;19.70;99.90
11532;DHT22;5822;51.000;5.874;2022-08-02T06:06:36;19.80;99.90
11532;DHT22;5822;51.000;5.874;2022-08-02T06:09:08;19.90;99.90
11532;DHT22;5822;51.000;5.874;2022-08-02T06:11:45;19.90;99.90
11532;DHT22;5822;51.000;5.874;2022-08-02T06:14:11;19.90;99.90
11532;DHT22;5822;51.000;5.874;2022-08-02T06:16:38;19.90;99.90
11532;DHT22;5822;51.000;5.874;2022-08-02T06:19:04;19.90;99.90
11532;DHT22;5822;51.000;5.874;2022-08-02T06:21:30;20.00;99.90
11532;DHT22;5822;51.000;5.874;2022-08-02T06:23:56;20.00;99.90
11532;DHT22;5822;51.000;5.874;2022-08-02T06:26:26;20.10;99.90
11532;DHT22;5822;51.000;5.874;2022-08-02T06:28:55;20.10;99.90
11532;DHT22;5822;51.000;5.874;2022-08-02T06:31:22;20.20;99.90
11532;DHT22;5822;51.000;5.874;2022-08-02T06:33:47;20.20;99.90
11532;DHT22;5822;51.000;5.874;2022-08-02T06:39:31;20.20;99.90
11532;DHT22;5822;51.000;5.874;2022-08-02T06:41:57;20.20;99.90
11532;DHT22;5822;51.000;5.874;2022-08-02T06:44:26;20.20;99.90
11532;DHT22;5822;51.000;5.874;2022-08-02T06:46:51;20.20;99.90
11532;DHT22;5822;51.000;5.874;2022-08-02T06:49:17;20.30;99.90
11532;DHT22;5822;51.000;5.874;2022-08-02T06:51:42;20.40;99.90
11532;DHT22;5822;51.000;5.874;2022-08-02T06:54:08;20.40;99.90
11532;DHT22;5822;51.000;5.874;2022-08-02T06:56:34;20.40;99.90
11532;DHT22;5822;51.000;5.874;2022-08-02T06:58:59;20.40;99.90
11532;DHT22;5822;51.000;5.874;2022-08-02T07:01:25;20.50;99.90
11532;DHT22;5822;51.000;5.874;2022-08-02T07:03:51;20.50;99.90
11532;DHT22;5822;51.000;5.874;2022-08-02T07:06:16;20.50;99.90
11532;DHT22;5822;51.000;5.874;2022-08-02T07:08:42;20.50;99.90
11532;DHT22;5822;51.000;5.874;2022-08-02T07:11:08;20.60;99.90
11532;DHT22;5822;51.000;5.874;2022-08-02T07:13:34;20.60;99.90
11532;DHT22;5822;51.000;5.874;2022-08-02T07:16:01;20.70;99.90
11532;DHT22;5822;51.000;5.874;2022-08-02T07:18:27;20.60;99.90
11532;DHT22;5822;51.000;5.874;2022-08-02T07:20:52;20.70;99.90
11532;DHT22;5822;51.000;5.874;2022-08-02T07:23:18;20.70;99.90
11532;DHT22;5822;51.000;5.874;2022-08-02T07:25:45;20.70;99.90
11532;DHT22;5822;51.000;5.874;2022-08-02T07:28:11;20.80;99.90
11532;DHT22;5822;51.000;5.874;2022-08-02T07:30:40;20.80;99.90
11532;DHT22;5822;51.000;5.874;2022-08-02T07:33:06;20.80;99.90
11532;DHT22;5822;51.000;5.874;2022-08-02T07:35:31;20.90;99.90
11532;DHT22;5822;51.000;5.874;2022-08-02T07:37:57;20.90;99.90
11532;DHT22;5822;51.000;5.874;2022-08-02T07:40:24;20.90;99.90
11532;DHT22;5822;51.000;5.874;2022-08-02T07:42:52;20.90;99.90
11532;DHT22;5822;51.000;5.874;2022-08-02T07:45:19;20.90;99.90
11532;DHT22;5822;51.000;5.874;2022-08-02T07:47:45;20.90;99.90
11532;DHT22;5822;51.000;5.874;2022-08-02T07:50:11;21.00;99.90
11532;DHT22;5822;51.000;5.874;2022-08-02T07:52:38;21.00;99.90
11532;DHT22;5822;51.000;5.874;2022-08-02T07:55:04;21.00;99.90
11532;DHT22;5822;51.000;5.874;2022-08-02T07:57:30;21.00;99.90
11532;DHT22;5822;51.000;5.874;2022-08-02T07:59:56;21.00;99.90
11532;DHT22;5822;51.000;5.874;2022-08-02T08:02:22;21.00;99.90
11532;DHT22;5822;51.000;5.874;2022-08-02T08:04:49;21.00;99.90
11532;DHT22;5822;51.000;5.874;2022-08-02T08:07:15;21.00;99.90
11532;DHT22;5822;51.000;5.874;2022-08-02T08:09:41;21.00;99.90
11532;DHT22;5822;51.000;5.874;2022-08-02T08:12:08;21.00;99.90
11532;DHT22;5822;51.000;5.874;2022-08-02T08:14:34;21.00;99.90
11532;DHT22;5822;51.000;5.874;2022-08-02T08:16:59;21.10;99.90
11532;DHT22;5822;51.000;5.874;2022-08-02T08:19:25;21.10;99.90
11532;DHT22;5822;51.000;5.874;2022-08-02T08:21:51;21.10;99.90
11532;DHT22;5822;51.000;5.874;2022-08-02T08:24:16;21.10;99.90
11532;DHT22;5822;51.000;5.874;2022-08-02T08:26:42;21.20;99.90
11532;DHT22;5822;51.000;5.874;2022-08-02T08:29:08;21.20;99.90
11532;DHT22;5822;51.000;5.874;2022-08-02T08:31:33;21.30;99.90
11532;DHT22;5822;51.000;5.874;2022-08-02T08:34:00;21.30;99.90
11532;DHT22;5822;51.000;5.874;2022-08-02T08:36:26;21.30;99.90
11532;DHT22;5822;51.000;5.874;2022-08-02T08:38:52;21.30;99.90
11532;DHT22;5822;51.000;5.874;2022-08-02T08:41:18;21.30;99.90
11532;DHT22;5822;51.000;5.874;2022-08-02T08:43:45;21.30;99.90
11532;DHT22;5822;51.000;5.874;2022-08-02T08:46:26;21.30;99.90
11532;DHT22;5822;51.000;5.874;2022-08-02T08:48:55;21.30;99.90
11532;DHT22;5822;51.000;5.874;2022-08-02T08:51:24;21.30;99.90
11532;DHT22;5822;51.000;5.874;2022-08-02T08:53:53;21.40;99.90
11532;DHT22;5822;51.000;5.874;2022-08-02T08:56:21;21.40;99.90
11532;DHT22;5822;51.000;5.874;2022-08-02T08:58:47;21.40;99.90
11532;DHT22;5822;51.000;5.874;2022-08-02T09:01:13;21.40;99.90
11532;DHT22;5822;51.000;5.874;2022-08-02T09:03:41;21.40;99.90
11532;DHT22;5822;51.000;5.874;2022-08-02T09:06:07;21.40;99.90
11532;DHT22;5822;51.000;5.874;2022-08-02T09:08:32;21.40;99.90
11532;DHT22;5822;51.000;5.874;2022-08-02T09:10:58;21.40;99.90
11532;DHT22;5822;51.000;5.874;2022-08-02T09:13:26;21.50;99.90
11532;DHT22;5822;51.000;5.874;2022-08-02T09:15:59;21.40;99.90
11532;DHT22;5822;51.000;5.874;2022-08-02T09:18:36;21.40;99.90
11532;DHT22;5822;51.000;5.874;2022-08-02T09:21:05;21.40;99.90
11532;DHT22;5822;51.000;5.874;2022-08-02T09:23:50;21.40;99.90
11532;DHT22;5822;51.000;5.874;2022-08-02T09:26:21;21.50;99.90
11532;DHT22;5822;51.000;5.874;2022-08-02T09:28:49;21.50;99.90
11532;DHT22;5822;51.000;5.874;2022-08-02T09:31:18;21.50;99.90
11532;DHT22;5822;51.000;5.874;2022-08-02T09:33:49;21.60;99.90
11532;DHT22;5822;51.000;5.874;2022-08-02T09:36:15;21.60;99.90
11532;DHT22;5822;51.000;5.874;2022-08-02T09:38:58;21.70;99.90
11532;DHT22;5822;51.000;5.874;2022-08-02T09:41:27;21.70;99.90
11532;DHT22;5822;51.000;5.874;2022-08-02T09:43:54;21.60;99.90
11532;DHT22;5822;51.000;5.874;2022-08-02T09:46:30;21.60;99.90
11532;DHT22;5822;51.000;5.874;2022-08-02T09:48:58;21.60;99.90
11532;DHT22;5822;51.000;5.874;2022-08-02T09:51:32;21.60;99.90
11532;DHT22;5822;51.000;5.874;2022-08-02T09:54:04;21.60;99.90
11532;DHT22;5822;51.000;5.874;2022-08-02T09:56:48;21.60;99.90
11532;DHT22;5822;51.000;5.874;2022-08-02T09:59:15;21.70;99.90
11532;DHT22;5822;51.000;5.874;2022-08-02T10:01:42;21.80;99.90
11532;DHT22;5822;51.000;5.874;2022-08-02T10:04:10;21.80;99.90
11532;DHT22;5822;51.000;5.874;2022-08-02T10:06:41;21.80;99.90
11532;DHT22;5822;51.000;5.874;2022-08-02T10:09:09;21.80;99.90
11532;DHT22;5822;51.000;5.874;2022-08-02T10:11:37;21.90;99.90
11532;DHT22;5822;51.000;5.874;2022-08-02T10:14:04;22.00;99.90
11532;DHT22;5822;51.000;5.874;2022-08-02T10:16:33;22.10;99.90
11532;DHT22;5822;51.000;5.874;2022-08-02T10:18:58;22.10;99.90
11532;DHT22;5822;51.000;5.874;2022-08-02T10:21:28;22.20;99.90
11532;DHT22;5822;51.000;5.874;2022-08-02T10:24:03;22.10;99.90
11532;DHT22;5822;51.000;5.874;2022-08-02T10:26:32;22.10;99.90
11532;DHT22;5822;51.000;5.874;2022-08-02T10:28:58;22.20;99.90
11532;DHT22;5822;51.000;5.874;2022-08-02T10:31:27;22.40;99.90
11532;DHT22;5822;51.000;5.874;2022-08-02T10:33:57;22.40;99.90
11532;DHT22;5822;51.000;5.874;2022-08-02T10:36:25;22.30;99.90
11532;DHT22;5822;51.000;5.874;2022-08-02T10:38:54;22.30;99.90
11532;DHT22;5822;51.000;5.874;2022-08-02T10:44:05;22.50;99.90
11532;DHT22;5822;51.000;5.874;2022-08-02T10:46:33;22.70;99.90
11532;DHT22;5822;51.000;5.874;2022-08-02T10:49:18;22.60;99.90
11532;DHT22;5822;51.000;5.874;2022-08-02T10:56:59;22.60;99.90
11532;DHT22;5822;51.000;5.874;2022-08-02T10:59:33;22.50;99.90
11532;DHT22;5822;51.000;5.874;2022-08-02T11:02:04;22.70;99.90
11532;DHT22;5822;51.000;5.874;2022-08-02T11:07:16;22.70;99.90
11532;DHT22;5822;51.000;5.874;2022-08-02T11:09:48;22.80;99.90
11532;DHT22;5822;51.000;5.874;2022-08-02T11:12:19;22.90;99.90
11532;DHT22;5822;51.000;5.874;2022-08-02T11:15:00;22.70;99.90
11532;DHT22;5822;51.000;5.874;2022-08-02T11:17:51;22.70;99.90
11532;DHT22;5822;51.000;5.874;2022-08-02T11:20:18;22.80;99.90
11532;DHT22;5822;51.000;5.874;2022-08-02T11:22:47;22.80;99.90
11532;DHT22;5822;51.000;5.874;2022-08-02T11:27:55;22.80;99.90
11532;DHT22;5822;51.000;5.874;2022-08-02T11:30:22;22.70;99.90
11532;DHT22;5822;51.000;5.874;2022-08-02T11:32:48;22.80;99.90
11532;DHT22;5822;51.000;5.874;2022-08-02T11:35:14;22.70;99.90
11532;DHT22;5822;51.000;5.874;2022-08-02T11:37:42;22.80;99.90
11532;DHT22;5822;51.000;5.874;2022-08-02T11:40:11;22.90;99.90
11532;DHT22;5822;51.000;5.874;2022-08-02T11:42:39;22.90;99.90
11532;DHT22;5822;51.000;5.874;2022-08-02T11:45:07;22.80;99.90
11532;DHT22;5822;51.000;5.874;2022-08-02T11:47:54;22.70;99.90
11532;DHT22;5822;51.000;5.874;2022-08-02T11:50:21;22.90;99.90
11532;DHT22;5822;51.000;5.874;2022-08-02T11:52:50;22.80;99.90
11532;DHT22;5822;51.000;5.874;2022-08-02T11:55:25;22.90;99.90
11532;DHT22;5822;51.000;5.874;2022-08-02T11:57:57;23.10;99.90
11532;DHT22;5822;51.000;5.874;2022-08-02T12:00:23;23.00;99.90
11532;DHT22;5822;51.000;5.874;2022-08-02T12:02:49;22.90;99.90
11532;DHT22;5822;51.000;5.874;2022-08-02T12:05:20;22.90;99.90
11532;DHT22;5822;51.000;5.874;2022-08-02T12:07:47;23.20;99.90
11532;DHT22;5822;51.000;5.874;2022-08-02T12:10:15;23.10;99.90
11532;DHT22;5822;51.000;5.874;2022-08-02T12:12:58;23.20;99.90
11532;DHT22;5822;51.000;5.874;2022-08-02T12:17:54;23.20;99.90
11532;DHT22;5822;51.000;5.874;2022-08-02T12:20:38;23.10;99.90
11532;DHT22;5822;51.000;5.874;2022-08-02T12:23:04;23.30;99.90
11532;DHT22;5822;51.000;5.874;2022-08-02T12:25:30;23.20;99.90
11532;DHT22;5822;51.000;5.874;2022-08-02T12:28:35;23.30;99.90
11532;DHT22;5822;51.000;5.874;2022-08-02T12:31:04;23.40;99.90
11532;DHT22;5822;51.000;5.874;2022-08-02T12:36:20;23.30;99.90
11532;DHT22;5822;51.000;5.874;2022-08-02T12:38:56;23.30;99.90
11532;DHT22;5822;51.000;5.874;2022-08-02T12:41:23;23.30;99.90
11532;DHT22;5822;51.000;5.874;2022-08-02T12:43:49;23.30;99.90
11532;DHT22;5822;51.000;5.874;2022-08-02T12:46:17;23.20;99.90
11532;DHT22;5822;51.000;5.874;2022-08-02T12:48:43;23.30;99.90
11532;DHT22;5822;51.000;5.874;2022-08-02T12:51:26;23.30;99.90
11532;DHT22;5822;51.000;5.874;2022-08-02T12:54:17;23.20;99.90
11532;DHT22;5822;51.000;5.874;2022-08-02T12:56:46;23.10;99.90
11532;DHT22;5822;51.000;5.874;2022-08-02T12:59:13;23.20;99.90
11532;DHT22;5822;51.000;5.874;2022-08-02T13:01:39;23.30;99.90
11532;DHT22;5822;51.000;5.874;2022-08-02T13:04:05;23.30;99.90
11532;DHT22;5822;51.000;5.874;2022-08-02T13:06:31;23.40;99.90
11532;DHT22;5822;51.000;5.874;2022-08-02T13:08:57;23.20;99.90
11532;DHT22;5822;51.000;5.874;2022-08-02T13:11:23;23.20;99.90
11532;DHT22;5822;51.000;5.874;2022-08-02T13:13:49;23.40;99.90
11532;DHT22;5822;51.000;5.874;2022-08-02T13:16:15;23.30;99.90
11532;DHT22;5822;51.000;5.874;2022-08-02T13:18:41;23.30;99.90
11532;DHT22;5822;51.000;5.874;2022-08-02T13:21:07;23.30;99.90
11532;DHT22;5822;51.000;5.874;2022-08-02T13:23:35;23.70;99.90
11532;DHT22;5822;51.000;5.874;2022-08-02T13:26:01;24.00;99.90
11532;DHT22;5822;51.000;5.874;2022-08-02T13:28:27;24.10;99.90
11532;DHT22;5822;51.000;5.874;2022-08-02T13:30:53;24.10;99.90
11532;DHT22;5822;51.000;5.874;2022-08-02T13:33:19;24.20;99.90
11532;DHT22;5822;51.000;5.874;2022-08-02T13:35:46;24.20;99.90
11532;DHT22;5822;51.000;5.874;2022-08-02T13:38:12;24.30;99.90
11532;DHT22;5822;51.000;5.874;2022-08-02T13:40:37;24.30;99.90
11532;DHT22;5822;51.000;5.874;2022-08-02T13:43:23;24.30;99.90
11532;DHT22;5822;51.000;5.874;2022-08-02T13:45:49;24.30;99.90
11532;DHT22;5822;51.000;5.874;2022-08-02T13:48:15;24.30;99.90
11532;DHT22;5822;51.000;5.874;2022-08-02T13:50:40;24.40;99.90
11532;DHT22;5822;51.000;5.874;2022-08-02T13:53:06;25.00;99.90
11532;DHT22;5822;51.000;5.874;2022-08-02T13:55:32;24.90;99.90
11532;DHT22;5822;51.000;5.874;2022-08-02T13:57:57;25.00;99.90
11532;DHT22;5822;51.000;5.874;2022-08-02T14:00:23;24.90;99.90
11532;DHT22;5822;51.000;5.874;2022-08-02T14:02:49;25.10;99.90
11532;DHT22;5822;51.000;5.874;2022-08-02T14:05:15;25.10;99.90
11532;DHT22;5822;51.000;5.874;2022-08-02T14:07:40;24.90;99.90
11532;DHT22;5822;51.000;5.874;2022-08-02T14:10:06;25.00;99.90
11532;DHT22;5822;51.000;5.874;2022-08-02T14:12:32;25.00;99.90
11532;DHT22;5822;51.000;5.874;2022-08-02T14:14:58;25.00;99.90
11532;DHT22;5822;51.000;5.874;2022-08-02T14:17:23;25.00;99.90
11532;DHT22;5822;51.000;5.874;2022-08-02T14:19:49;24.80;99.90
11532;DHT22;5822;51.000;5.874;2022-08-02T14:22:15;24.60;99.90
11532;DHT22;5822;51.000;5.874;2022-08-02T14:24:41;24.90;99.90
11532;DHT22;5822;51.000;5.874;2022-08-02T14:27:08;24.80;99.90
11532;DHT22;5822;51.000;5.874;2022-08-02T14:29:33;25.00;99.90
11532;DHT22;5822;51.000;5.874;2022-08-02T14:31:59;24.90;99.90
11532;DHT22;5822;51.000;5.874;2022-08-02T14:34:26;24.90;99.90
11532;DHT22;5822;51.000;5.874;2022-08-02T14:36:52;24.90;99.90
11532;DHT22;5822;51.000;5.874;2022-08-02T14:39:18;25.10;99.90
11532;DHT22;5822;51.000;5.874;2022-08-02T14:41:46;25.20;99.90
11532;DHT22;5822;51.000;5.874;2022-08-02T14:44:12;25.20;99.90
11532;DHT22;5822;51.000;5.874;2022-08-02T14:46:38;25.20;99.90
11532;DHT22;5822;51.000;5.874;2022-08-02T14:49:08;25.10;99.90
11532;DHT22;5822;51.000;5.874;2022-08-02T14:51:35;25.10;99.90
11532;DHT22;5822;51.000;5.874;2022-08-02T14:54:06;25.30;99.90
11532;DHT22;5822;51.000;5.874;2022-08-02T14:56:32;25.20;99.90
11532;DHT22;5822;51.000;5.874;2022-08-02T14:58:58;25.00;99.90
11532;DHT22;5822;51.000;5.874;2022-08-02T15:01:24;25.20;99.90
11532;DHT22;5822;51.000;5.874;2022-08-02T15:03:50;25.30;99.90
11532;DHT22;5822;51.000;5.874;2022-08-02T15:06:16;25.40;99.90
11532;DHT22;5822;51.000;5.874;2022-08-02T15:08:42;25.70;99.90
11532;DHT22;5822;51.000;5.874;2022-08-02T15:11:07;25.50;99.90
11532;DHT22;5822;51.000;5.874;2022-08-02T15:13:33;25.30;99.90
11532;DHT22;5822;51.000;5.874;2022-08-02T15:15:58;25.10;99.90
11532;DHT22;5822;51.000;5.874;2022-08-02T15:18:24;25.20;99.90
11532;DHT22;5822;51.000;5.874;2022-08-02T15:20:49;25.40;99.90
11532;DHT22;5822;51.000;5.874;2022-08-02T15:23:18;25.90;99.90
11532;DHT22;5822;51.000;5.874;2022-08-02T15:25:44;25.60;99.90
11532;DHT22;5822;51.000;5.874;2022-08-02T15:28:09;25.30;99.90
11532;DHT22;5822;51.000;5.874;2022-08-02T15:30:35;25.40;99.90
11532;DHT22;5822;51.000;5.874;2022-08-02T15:33:03;25.60;99.90
11532;DHT22;5822;51.000;5.874;2022-08-02T15:35:29;25.50;99.90
11532;DHT22;5822;51.000;5.874;2022-08-02T15:37:55;25.50;99.90
11532;DHT22;5822;51.000;5.874;2022-08-02T15:40:21;25.50;99.90
11532;DHT22;5822;51.000;5.874;2022-08-02T15:42:47;25.60;99.90
11532;DHT22;5822;51.000;5.874;2022-08-02T15:45:13;25.80;99.90
11532;DHT22;5822;51.000;5.874;2022-08-02T15:47:39;25.90;99.90
11532;DHT22;5822;51.000;5.874;2022-08-02T15:50:05;25.90;99.90
11532;DHT22;5822;51.000;5.874;2022-08-02T15:52:30;25.90;99.90
11532;DHT22;5822;51.000;5.874;2022-08-02T15:54:56;25.50;99.90
11532;DHT22;5822;51.000;5.874;2022-08-02T15:57:22;25.50;99.90
11532;DHT22;5822;51.000;5.874;2022-08-02T15:59:48;25.40;99.90
11532;DHT22;5822;51.000;5.874;2022-08-02T16:02:14;25.40;99.90
11532;DHT22;5822;51.000;5.874;2022-08-02T16:04:43;25.40;99.90
11532;DHT22;5822;51.000;5.874;2022-08-02T16:07:09;25.30;99.90
11532;DHT22;5822;51.000;5.874;2022-08-02T16:09:35;25.30;99.90
11532;DHT22;5822;51.000;5.874;2022-08-02T16:12:01;25.10;99.90
11532;DHT22;5822;51.000;5.874;2022-08-02T16:14:27;25.00;99.90
11532;DHT22;5822;51.000;5.874;2022-08-02T16:16:53;25.00;99.90
11532;DHT22;5822;51.000;5.874;2022-08-02T16:19:19;25.20;99.90
11532;DHT22;5822;51.000;5.874;2022-08-02T16:21:45;25.10;99.90
11532;DHT22;5822;51.000;5.874;2022-08-02T16:24:11;25.20;99.90
11532;DHT22;5822;51.000;5.874;2022-08-02T16:26:37;25.00;99.90
11532;DHT22;5822;51.000;5.874;2022-08-02T16:29:03;24.80;99.90
11532;DHT22;5822;51.000;5.874;2022-08-02T16:31:29;24.70;99.90
11532;DHT22;5822;51.000;5.874;2022-08-02T16:33:55;24.70;99.90